< < Back
Terminal Aerodrome Forecast


Current Version              Previous Versions:   1  2  3  4  5  6  7  8  9  

Terminal Aerodrome Forecast

555
FTUS42 KCHS 232300
TAFCHS
TAF
KCHS 232336Z 2400/2424 15012KT 6SM BR VCTS BKN008 OVC015CB
      TEMPO 2400/2404 2SM TSRA BR SCT005 OVC010CB
     FM240400 20012KT 5SM BR SCT008 OVC010 WS015/21040KT
     FM240900 21010KT 2SM BR OVC008 WS015/22040KT
     FM241500 22015G20KT 6SM BR SCT008 OVC012
     FM241900 21012G18KT P6SM VCSH SCT015 BKN020=



Latest METAR

146
SAUS80 KWBC 240000 RRC
MTRCHS
METAR KCHS 232356Z 14006KT 6SM TS BR SCT004 BKN007 OVC012CB 19/19 A2985
RMK AO2 TSB32RAB31E39 SLP107 OCNL LTGCG W-N TS W-N MOV NE
P0000 60015 T01940189 10194 20183 56019 $


USA.gov is the U.S. government's official web portal to all federal, state and local government web resources and services.